Time;durP1;ratioP1;P1;durP2;ratioP2;P2;SDS_P1;SDS_P2;PMS_P1;PMS_P2;Temp;Humidity;BMP_temperature;BMP_pressure;BME280_temperature;BME280_humidity;BME280_pressure;Samples;Min_cycle;Max_cycle;Signal;HPM_P1;HPM_P2
2021/08/06 00:00:13;;;;;;;5.03;2.97;;;17.20;1.00;;;;;;5008067;28;20477;-72
2021/08/06 00:02:41;;;;;;;3.83;3.27;;;17.10;1.00;;;;;;5007902;28;20863;-72
2021/08/06 00:05:07;;;;;;;3.60;3.27;;;17.20;1.00;;;;;;5008502;28;20482;-71
2021/08/06 00:07:33;;;;;;;3.40;2.80;;;17.10;1.00;;;;;;5007342;28;20441;-72
2021/08/06 00:09:59;;;;;;;2.80;2.50;;;17.10;1.00;;;;;;5008237;28;21148;-72
2021/08/06 00:12:25;;;;;;;3.80;3.20;;;17.10;1.00;;;;;;5012276;28;20183;-72
2021/08/06 00:14:51;;;;;;;2.83;2.53;;;17.10;1.00;;;;;;5013167;28;20442;-71
2021/08/06 00:17:17;;;;;;;4.67;3.10;;;17.00;1.00;;;;;;5011831;28;20917;-72
2021/08/06 00:19:42;;;;;;;3.77;2.83;;;17.00;1.00;;;;;;5008504;28;21140;-73
2021/08/06 00:22:08;;;;;;;4.00;2.97;;;17.00;1.00;;;;;;5008060;28;20188;-72
2021/08/06 00:24:34;;;;;;;4.70;3.53;;;17.00;1.00;;;;;;5014149;28;20230;-71
2021/08/06 00:26:59;;;;;;;3.37;3.07;;;17.00;1.00;;;;;;5011021;28;20622;-71
2021/08/06 00:29:25;;;;;;;2.93;2.63;;;17.10;1.00;;;;;;5006107;28;20218;-72
2021/08/06 00:31:51;;;;;;;4.10;2.87;;;17.10;1.00;;;;;;5009910;28;20557;-72
2021/08/06 00:34:18;;;;;;;3.40;2.93;;;17.10;1.00;;;;;;5009670;28;20190;-72
2021/08/06 00:36:47;;;;;;;3.37;2.80;;;17.00;1.00;;;;;;5005910;28;20454;-72
2021/08/06 00:39:14;;;;;;;4.17;3.20;;;17.00;1.00;;;;;;5025245;28;21197;-72
2021/08/06 00:41:39;;;;;;;2.73;2.53;;;17.00;1.00;;;;;;5010151;28;20930;-71
2021/08/06 00:44:05;;;;;;;3.20;2.77;;;17.00;1.00;;;;;;5010053;28;20372;-71
2021/08/06 00:46:31;;;;;;;3.10;2.80;;;17.00;1.00;;;;;;5011493;28;20450;-72
2021/08/06 00:49:00;;;;;;;3.27;2.60;;;17.00;1.00;;;;;;5014030;28;20466;-72
2021/08/06 00:51:27;;;;;;;3.90;2.73;;;17.00;1.00;;;;;;5010371;28;20445;-72
2021/08/06 00:53:57;;;;;;;5.60;2.90;;;17.00;1.00;;;;;;5009596;28;20444;-71
2021/08/06 00:56:32;;;;;;;3.37;2.97;;;17.00;1.00;;;;;;5011769;28;20436;-71
2021/08/06 00:58:58;;;;;;;3.83;2.87;;;17.00;1.00;;;;;;5009953;28;20972;-71
2021/08/06 01:01:29;;;;;;;3.90;2.37;;;17.10;1.00;;;;;;5024659;28;20553;-72
2021/08/06 01:04:11;;;;;;;2.80;2.50;;;17.10;1.00;;;;;;5022065;28;20462;-71
2021/08/06 01:07:05;;;;;;;7.30;3.50;;;17.00;1.00;;;;;;5009525;28;21266;-72
2021/08/06 01:10:01;;;;;;;4.10;3.03;;;17.10;1.00;;;;;;5009853;28;20530;-72
2021/08/06 01:12:53;;;;;;;3.00;2.63;;;17.10;1.00;;;;;;5013719;28;20442;-71
2021/08/06 01:15:21;;;;;;;4.53;2.90;;;17.10;1.00;;;;;;5010759;28;20477;-71
2021/08/06 01:17:49;;;;;;;3.47;2.67;;;17.10;1.00;;;;;;5011536;28;21012;-72
2021/08/06 01:20:29;;;;;;;4.00;3.00;;;17.10;1.00;;;;;;5025850;28;20438;-72
2021/08/06 01:23:02;;;;;;;4.43;2.87;;;17.10;1.00;;;;;;5014897;28;20563;-72
2021/08/06 01:25:51;;;;;;;4.10;3.07;;;17.20;1.00;;;;;;5015234;28;20496;-72
2021/08/06 01:28:29;;;;;;;3.00;2.30;;;17.20;1.00;;;;;;5013411;28;21062;-72
2021/08/06 01:30:59;;;;;;;4.53;2.67;;;17.20;1.00;;;;;;5031392;28;20433;-72
2021/08/06 01:33:28;;;;;;;3.93;3.17;;;17.20;1.00;;;;;;5011118;28;20470;-72
2021/08/06 01:35:54;;;;;;;3.33;2.80;;;17.20;1.00;;;;;;5009773;28;21026;-72
2021/08/06 01:38:21;;;;;;;4.40;2.93;;;17.20;1.00;;;;;;5014859;28;20226;-72
2021/08/06 01:40:56;;;;;;;11.20;3.50;;;17.20;1.00;;;;;;5010980;28;20469;-72
2021/08/06 01:43:45;;;;;;;5.60;2.93;;;17.20;1.00;;;;;;5008337;28;20449;-72
2021/08/06 01:46:41;;;;;;;5.60;2.40;;;17.20;1.00;;;;;;5017338;28;20438;-72
2021/08/06 01:49:19;;;;;;;8.90;2.90;;;17.20;1.00;;;;;;5012753;28;20550;-72
2021/08/06 01:51:51;;;;;;;2.60;2.40;;;17.20;1.00;;;;;;5024433;28;20450;-72
2021/08/06 01:54:21;;;;;;;4.40;2.70;;;17.20;1.00;;;;;;5011616;28;20451;-72
2021/08/06 01:56:49;;;;;;;4.03;2.93;;;17.20;1.00;;;;;;5013249;28;20799;-72
2021/08/06 01:59:17;;;;;;;3.53;2.60;;;17.20;1.00;;;;;;5012695;28;20450;-72
2021/08/06 02:01:48;;;;;;;5.47;2.93;;;17.20;1.00;;;;;;5011057;28;20494;-72
2021/08/06 02:04:16;;;;;;;4.03;2.93;;;17.20;1.00;;;;;;5014374;28;20461;-72
2021/08/06 02:06:51;;;;;;;3.90;3.23;;;17.20;1.00;;;;;;5013003;28;20446;-72
2021/08/06 02:09:22;;;;;;;2.90;2.63;;;17.20;1.00;;;;;;5011275;28;20807;-72
2021/08/06 02:11:50;;;;;;;3.90;3.50;;;17.20;1.00;;;;;;5015391;28;20458;-72
2021/08/06 02:14:22;;;;;;;5.20;3.13;;;17.30;1.00;;;;;;5032783;28;20434;-72
2021/08/06 02:16:53;;;;;;;9.53;2.83;;;17.20;1.00;;;;;;5011310;28;20947;-72
2021/08/06 02:19:25;;;;;;;3.93;3.10;;;17.20;1.00;;;;;;5032678;28;20439;-72
2021/08/06 02:22:00;;;;;;;4.03;3.10;;;17.20;1.00;;;;;;5010481;28;20531;-72
2021/08/06 02:24:30;;;;;;;2.40;2.20;;;17.10;1.00;;;;;;5013006;28;20485;-72
2021/08/06 02:26:57;;;;;;;3.77;3.13;;;17.10;1.00;;;;;;5012339;28;20448;-73
2021/08/06 02:29:30;;;;;;;3.50;2.97;;;17.00;1.00;;;;;;5010384;28;20501;-72
2021/08/06 02:31:58;;;;;;;6.33;3.00;;;17.00;1.00;;;;;;5006479;28;20441;-71
2021/08/06 02:34:25;;;;;;;3.90;2.80;;;17.00;1.00;;;;;;5013809;28;20450;-72
2021/08/06 02:36:52;;;;;;;4.90;3.50;;;17.00;1.00;;;;;;5008499;28;20442;-72
2021/08/06 02:39:27;;;;;;;4.60;2.90;;;16.90;1.00;;;;;;5011139;28;20553;-72
2021/08/06 02:41:56;;;;;;;5.83;2.70;;;16.90;1.00;;;;;;5012817;28;20446;-72
2021/08/06 02:44:23;;;;;;;3.43;3.10;;;16.90;1.00;;;;;;5009455;28;20477;-72
2021/08/06 02:46:48;;;;;;;3.17;2.87;;;16.90;1.00;;;;;;5007062;28;20565;-72
2021/08/06 02:49:14;;;;;;;4.27;3.40;;;16.80;1.00;;;;;;5009717;28;20479;-72
2021/08/06 02:51:40;;;;;;;3.17;2.87;;;16.80;1.00;;;;;;5008458;28;20215;-72
2021/08/06 02:54:06;;;;;;;4.03;2.80;;;16.80;1.00;;;;;;5011678;28;20242;-72
2021/08/06 02:56:33;;;;;;;4.97;2.83;;;16.80;1.00;;;;;;5013490;28;20449;-72
2021/08/06 02:58:59;;;;;;;3.60;3.20;;;16.80;1.00;;;;;;5011439;28;20468;-72
2021/08/06 03:01:25;;;;;;;3.20;2.90;;;16.80;1.00;;;;;;5010593;28;20983;-72
2021/08/06 03:03:55;;;;;;;5.30;3.03;;;16.80;1.00;;;;;;5009782;28;20206;-72
2021/08/06 03:06:23;;;;;;;3.40;2.87;;;16.80;1.00;;;;;;5011744;28;20459;-71
2021/08/06 03:08:48;;;;;;;3.43;2.90;;;16.80;1.00;;;;;;5024351;28;20474;-71
2021/08/06 03:11:14;;;;;;;3.30;2.53;;;16.70;1.00;;;;;;4996507;28;20207;-72
2021/08/06 03:13:40;;;;;;;3.70;3.27;;;16.80;1.00;;;;;;5009748;28;20197;-72
2021/08/06 03:16:06;;;;;;;3.40;3.07;;;16.80;1.00;;;;;;5009006;28;20195;-72
2021/08/06 03:18:31;;;;;;;3.40;3.00;;;16.80;1.00;;;;;;5025670;28;20212;-71
2021/08/06 03:20:58;;;;;;;5.23;3.17;;;16.80;1.00;;;;;;5012637;28;20240;-71
2021/08/06 03:23:25;;;;;;;7.83;3.00;;;16.80;1.00;;;;;;5014290;28;20454;-70
2021/08/06 03:25:52;;;;;;;4.37;3.13;;;16.80;1.00;;;;;;5011508;28;20451;-70
2021/08/06 03:28:17;;;;;;;4.33;2.63;;;16.80;1.00;;;;;;5014479;28;21079;-71
2021/08/06 03:30:45;;;;;;;3.70;2.90;;;16.80;1.00;;;;;;5008046;28;20206;-70
2021/08/06 03:33:11;;;;;;;4.93;3.03;;;16.80;1.00;;;;;;5006601;28;20873;-71
2021/08/06 03:35:37;;;;;;;3.40;2.60;;;16.80;1.00;;;;;;5016092;28;20440;-70
2021/08/06 03:38:16;;;;;;;3.60;2.30;;;16.80;1.00;;;;;;5028211;28;20325;-72
2021/08/06 03:40:43;;;;;;;3.60;2.67;;;16.80;1.00;;;;;;5010163;28;21333;-72
2021/08/06 03:43:10;;;;;;;4.70;3.07;;;16.90;1.00;;;;;;5007812;28;21025;-71
2021/08/06 03:45:35;;;;;;;4.90;3.20;;;16.80;1.00;;;;;;5018595;28;20972;-72
2021/08/06 03:48:01;;;;;;;4.60;2.70;;;16.80;1.00;;;;;;5015832;28;20466;-72
2021/08/06 03:50:28;;;;;;;4.73;3.00;;;16.80;1.00;;;;;;5012968;28;20271;-72
2021/08/06 03:52:54;;;;;;;2.40;2.10;;;16.80;1.00;;;;;;5032125;28;20442;-71
2021/08/06 03:55:20;;;;;;;4.77;3.10;;;16.80;1.00;;;;;;5028760;28;20978;-73
2021/08/06 03:57:53;;;;;;;2.87;2.53;;;16.80;1.00;;;;;;5014710;28;20450;-72
2021/08/06 04:00:21;;;;;;;5.50;3.10;;;16.80;1.00;;;;;;5022720;28;20175;-72
2021/08/06 04:02:48;;;;;;;3.10;2.50;;;16.80;1.00;;;;;;5015144;28;20454;-72
2021/08/06 04:05:15;;;;;;;3.43;2.50;;;16.80;1.00;;;;;;5013101;28;20649;-72
2021/08/06 04:07:45;;;;;;;4.30;3.00;;;16.60;1.00;;;;;;5017150;28;20974;-72
2021/08/06 04:10:15;;;;;;;2.90;2.47;;;16.60;23.60;;;;;;5014395;28;21275;-72
2021/08/06 04:12:40;;;;;;;3.07;2.70;;;16.50;86.00;;;;;;5029084;28;20569;-73
2021/08/06 04:15:07;;;;;;;4.53;2.63;;;16.50;99.90;;;;;;5017213;28;20961;-72
2021/08/06 04:17:33;;;;;;;5.07;3.17;;;16.50;99.90;;;;;;5018413;28;20211;-72
2021/08/06 04:19:59;;;;;;;4.33;2.93;;;16.40;99.90;;;;;;5016580;28;21109;-72
2021/08/06 04:22:25;;;;;;;3.10;2.60;;;16.40;99.90;;;;;;5013838;28;20450;-72
2021/08/06 04:24:51;;;;;;;3.23;2.60;;;16.30;99.90;;;;;;5032236;28;22429;-72
2021/08/06 04:27:17;;;;;;;3.77;3.30;;;16.30;99.90;;;;;;5017053;28;20454;-72
2021/08/06 04:29:42;;;;;;;3.20;2.70;;;16.30;1.00;;;;;;5034493;28;20211;-72
2021/08/06 04:32:08;;;;;;;3.73;2.87;;;16.30;45.10;;;;;;5015348;28;20446;-72
2021/08/06 04:34:34;;;;;;;3.70;3.17;;;16.30;1.00;;;;;;5015176;28;20200;-72
2021/08/06 04:37:00;;;;;;;3.50;3.20;;;16.30;9.60;;;;;;5017028;28;20272;-72
2021/08/06 04:39:26;;;;;;;3.93;2.70;;;16.30;69.30;;;;;;5022895;28;20482;-72
2021/08/06 04:41:52;;;;;;;3.70;3.30;;;16.30;99.90;;;;;;5009362;28;20439;-72
2021/08/06 04:44:18;;;;;;;5.13;3.37;;;16.20;68.20;;;;;;5015161;28;21000;-72
2021/08/06 04:46:45;;;;;;;3.60;3.07;;;16.30;1.00;;;;;;5016928;28;20453;-72
2021/08/06 04:49:11;;;;;;;4.97;3.50;;;16.20;1.00;;;;;;5018277;28;20473;-72
2021/08/06 04:51:38;;;;;;;3.33;3.00;;;16.20;1.00;;;;;;5024272;28;20470;-72
2021/08/06 04:54:04;;;;;;;5.20;3.40;;;16.30;99.90;;;;;;5023187;28;20616;-72
2021/08/06 04:56:31;;;;;;;7.87;2.97;;;16.30;99.90;;;;;;5019099;28;20588;-72
2021/08/06 04:58:57;;;;;;;4.93;3.17;;;16.30;73.50;;;;;;5022478;28;21232;-72
2021/08/06 05:01:23;;;;;;;3.43;3.13;;;16.30;99.90;;;;;;5015663;28;20442;-72
2021/08/06 05:03:48;;;;;;;4.10;3.20;;;16.30;99.90;;;;;;5037592;28;20211;-72
2021/08/06 05:06:15;;;;;;;3.77;3.20;;;16.30;99.90;;;;;;5032122;28;20188;-72
2021/08/06 05:08:46;;;;;;;4.20;2.97;;;16.30;1.00;;;;;;5021750;28;20374;-72
2021/08/06 05:11:12;;;;;;;3.00;2.37;;;16.30;99.90;;;;;;5016917;28;20553;-72
2021/08/06 05:13:38;;;;;;;3.80;2.90;;;16.20;99.90;;;;;;5017331;28;20434;-72
2021/08/06 05:16:04;;;;;;;4.23;2.67;;;16.30;99.90;;;;;;5038782;28;20498;-73
2021/08/06 05:18:30;;;;;;;4.87;3.20;;;16.30;99.90;;;;;;5039890;28;20293;-72
2021/08/06 05:20:56;;;;;;;3.17;2.80;;;16.30;99.90;;;;;;5021910;28;20447;-72
2021/08/06 05:23:21;;;;;;;3.23;2.73;;;16.30;99.90;;;;;;5022628;28;20611;-72
2021/08/06 05:25:47;;;;;;;5.23;2.90;;;16.30;99.90;;;;;;5020863;28;20261;-72
2021/08/06 05:28:13;;;;;;;4.27;2.70;;;16.40;99.90;;;;;;5021514;28;20595;-72
2021/08/06 05:30:39;;;;;;;6.23;3.13;;;16.40;99.90;;;;;;5017826;28;20446;-72
2021/08/06 05:33:06;;;;;;;5.77;3.67;;;16.40;99.90;;;;;;5023359;28;20196;-72
2021/08/06 05:35:32;;;;;;;5.47;4.03;;;16.40;99.90;;;;;;5040445;28;20495;-72
2021/08/06 05:38:00;;;;;;;4.03;2.63;;;16.40;99.90;;;;;;5010754;28;20432;-72
2021/08/06 05:40:27;;;;;;;7.93;3.20;;;16.40;99.90;;;;;;5021698;28;20508;-73
2021/08/06 05:42:54;;;;;;;3.70;2.63;;;16.40;99.90;;;;;;5018695;28;20914;-72
2021/08/06 05:45:23;;;;;;;4.20;3.80;;;16.40;99.90;;;;;;5019727;28;20434;-72
2021/08/06 05:47:53;;;;;;;3.37;3.07;;;16.40;99.90;;;;;;5015601;28;20521;-72
2021/08/06 05:50:25;;;;;;;5.37;3.30;;;16.40;99.90;;;;;;5035548;28;20490;-72
2021/08/06 05:52:51;;;;;;;6.50;3.40;;;16.40;99.90;;;;;;5021109;28;20449;-72
2021/08/06 05:55:18;;;;;;;4.43;3.30;;;16.50;99.90;;;;;;5020110;28;20438;-71
2021/08/06 05:57:45;;;;;;;4.23;2.80;;;16.40;99.90;;;;;;5014857;28;20503;-72
2021/08/06 06:00:13;;;;;;;6.10;3.70;;;16.40;99.90;;;;;;5015935;28;20485;-72
2021/08/06 06:02:42;;;;;;;5.03;3.07;;;16.40;99.90;;;;;;5020606;28;20462;-72
2021/08/06 06:05:19;;;;;;;5.50;3.43;;;16.50;99.90;;;;;;5015469;28;20554;-72
2021/08/06 06:07:49;;;;;;;5.87;3.80;;;16.60;99.90;;;;;;5014875;28;20435;-72
2021/08/06 06:10:20;;;;;;;4.47;3.27;;;16.60;99.90;;;;;;5015428;28;20299;-72
2021/08/06 06:12:46;;;;;;;3.70;3.30;;;16.60;99.90;;;;;;5013792;28;20431;-72
2021/08/06 06:15:13;;;;;;;4.20;3.00;;;16.60;99.90;;;;;;5021329;28;20467;-72
2021/08/06 06:17:39;;;;;;;5.10;3.20;;;16.70;99.90;;;;;;5021410;28;20470;-72
2021/08/06 06:20:06;;;;;;;4.33;3.20;;;16.70;99.90;;;;;;5022560;28;20549;-72
2021/08/06 06:22:33;;;;;;;4.00;3.30;;;16.70;99.90;;;;;;5024171;28;20808;-72
2021/08/06 06:24:59;;;;;;;3.30;2.53;;;16.60;99.90;;;;;;5024755;28;20438;-72
2021/08/06 06:27:25;;;;;;;3.30;2.77;;;16.60;99.90;;;;;;5020981;28;20442;-72
2021/08/06 06:29:51;;;;;;;3.50;2.70;;;16.60;99.90;;;;;;5013712;28;20474;-71
2021/08/06 06:32:17;;;;;;;5.47;3.00;;;16.50;99.90;;;;;;5033136;28;20446;-72
2021/08/06 06:34:43;;;;;;;2.93;2.30;;;16.50;99.90;;;;;;5019100;28;20467;-71
2021/08/06 06:37:09;;;;;;;6.37;3.90;;;16.50;99.90;;;;;;5034988;28;20445;-72
2021/08/06 06:39:36;;;;;;;4.63;2.77;;;16.50;99.90;;;;;;5018003;28;20210;-72
2021/08/06 06:42:02;;;;;;;2.40;2.20;;;16.50;99.90;;;;;;5016302;28;20987;-72
2021/08/06 06:44:31;;;;;;;3.50;2.47;;;16.50;99.90;;;;;;5030820;28;20269;-72
2021/08/06 06:46:57;;;;;;;3.70;2.43;;;16.60;99.90;;;;;;5017803;28;20443;-72
2021/08/06 06:49:22;;;;;;;2.57;2.27;;;16.70;99.90;;;;;;5011448;28;20220;-72
2021/08/06 06:51:48;;;;;;;2.90;2.57;;;16.80;99.90;;;;;;5013136;28;20215;-72
2021/08/06 06:54:14;;;;;;;3.00;2.13;;;16.80;99.90;;;;;;5011354;28;20176;-72
2021/08/06 06:56:40;;;;;;;2.93;2.03;;;16.80;99.90;;;;;;5014927;28;20192;-72
2021/08/06 06:59:05;;;;;;;3.27;2.20;;;16.90;99.90;;;;;;5014734;28;21011;-72
2021/08/06 07:01:31;;;;;;;2.93;2.40;;;16.90;99.90;;;;;;5011542;28;20274;-72
2021/08/06 07:03:57;;;;;;;3.20;2.13;;;16.90;99.90;;;;;;5012494;28;20204;-72
2021/08/06 07:06:24;;;;;;;2.73;2.20;;;17.00;99.90;;;;;;5010292;28;20242;-72
2021/08/06 07:08:49;;;;;;;3.80;2.40;;;17.20;99.90;;;;;;5008120;28;20471;-72
2021/08/06 07:11:15;;;;;;;3.20;2.57;;;17.20;99.90;;;;;;5003421;28;20443;-73
2021/08/06 07:13:42;;;;;;;3.60;2.83;;;17.30;99.90;;;;;;5012158;28;20208;-72
2021/08/06 07:16:08;;;;;;;2.80;2.30;;;17.30;99.90;;;;;;5008423;28;20933;-72
2021/08/06 07:18:35;;;;;;;3.80;2.30;;;17.40;99.90;;;;;;5010718;28;20196;-72
2021/08/06 07:21:01;;;;;;;2.73;2.40;;;17.30;99.90;;;;;;5014020;28;21057;-71
2021/08/06 07:23:31;;;;;;;3.00;2.20;;;17.40;99.90;;;;;;5011218;28;20191;-72
2021/08/06 07:25:57;;;;;;;2.80;2.43;;;17.40;99.90;;;;;;5015796;28;20462;-71
2021/08/06 07:28:23;;;;;;;5.17;2.60;;;17.30;99.90;;;;;;5007741;28;20875;-71
2021/08/06 07:30:49;;;;;;;2.80;2.40;;;17.40;99.90;;;;;;4997044;28;20493;-71
2021/08/06 07:33:15;;;;;;;5.07;2.43;;;17.50;99.90;;;;;;5005774;28;20231;-72
2021/08/06 07:35:40;;;;;;;4.50;2.50;;;17.50;99.90;;;;;;5007194;28;20181;-72
2021/08/06 07:38:06;;;;;;;2.40;2.20;;;17.60;99.90;;;;;;5015279;28;20218;-72
2021/08/06 07:40:33;;;;;;;2.97;2.10;;;17.50;99.90;;;;;;5009738;28;20208;-72
2021/08/06 07:43:00;;;;;;;3.57;2.40;;;17.50;99.90;;;;;;5009120;28;20442;-72
2021/08/06 07:45:27;;;;;;;4.00;2.20;;;17.50;99.90;;;;;;5016657;28;20438;-71
2021/08/06 07:47:53;;;;;;;4.43;2.70;;;17.60;99.90;;;;;;5012158;28;20538;-72
2021/08/06 07:50:19;;;;;;;4.07;2.47;;;17.50;99.90;;;;;;5011188;28;20482;-71
2021/08/06 07:52:45;;;;;;;2.90;2.33;;;17.50;99.90;;;;;;5010184;28;20443;-71
2021/08/06 07:55:13;;;;;;;3.30;2.20;;;17.60;99.90;;;;;;5029747;28;20500;-72
2021/08/06 07:57:40;;;;;;;2.40;1.90;;;17.70;99.90;;;;;;5014127;28;20538;-72
2021/08/06 08:00:07;;;;;;;2.23;1.90;;;17.70;99.90;;;;;;5030436;28;20447;-72
2021/08/06 08:02:42;;;;;;;2.33;1.93;;;17.70;1.00;;;;;;5014747;28;20956;-72
2021/08/06 08:05:10;;;;;;;4.37;2.13;;;17.80;1.00;;;;;;5024101;28;20490;-71
2021/08/06 08:07:36;;;;;;;2.50;1.80;;;17.80;99.90;;;;;;4996618;28;20523;-71
2021/08/06 08:10:02;;;;;;;2.47;1.90;;;17.80;1.00;;;;;;5013983;28;20465;-71
2021/08/06 08:12:28;;;;;;;2.33;1.90;;;17.90;99.90;;;;;;5012515;28;20685;-71
2021/08/06 08:14:54;;;;;;;2.97;1.93;;;17.90;1.00;;;;;;5012570;28;20440;-72
2021/08/06 08:17:22;;;;;;;2.87;1.80;;;18.00;99.90;;;;;;5012564;28;20570;-72
2021/08/06 08:19:48;;;;;;;2.80;1.90;;;18.00;69.40;;;;;;5010591;28;20462;-71
2021/08/06 08:22:14;;;;;;;3.20;2.10;;;18.00;1.00;;;;;;5033616;28;20450;-72
2021/08/06 08:24:41;;;;;;;2.87;2.20;;;18.00;99.90;;;;;;5013431;28;20556;-72
2021/08/06 08:27:06;;;;;;;2.53;2.33;;;18.00;4.40;;;;;;5011699;28;20446;-71
2021/08/06 08:29:32;;;;;;;3.40;2.17;;;18.00;1.00;;;;;;5015646;28;20474;-71
2021/08/06 08:31:59;;;;;;;4.70;2.50;;;18.10;99.90;;;;;;5028247;28;20395;-72
2021/08/06 08:34:25;;;;;;;3.03;2.73;;;18.30;99.90;;;;;;5011833;28;20454;-72
2021/08/06 08:36:51;;;;;;;4.30;2.67;;;18.40;1.00;;;;;;5009721;28;20294;-72
2021/08/06 08:39:19;;;;;;;5.57;2.73;;;18.80;1.00;;;;;;5018895;28;20541;-71
2021/08/06 08:41:45;;;;;;;2.80;2.33;;;18.80;99.90;;;;;;5020150;28;20446;-71
2021/08/06 08:44:11;;;;;;;3.30;1.87;;;19.10;99.90;;;;;;5020861;28;22005;-72
2021/08/06 08:46:38;;;;;;;5.00;2.53;;;19.40;99.90;;;;;;5015564;28;20809;-72
2021/08/06 08:49:04;;;;;;;3.63;2.63;;;19.70;99.90;;;;;;5035578;28;20485;-71
2021/08/06 08:51:35;;;;;;;3.43;2.60;;;19.80;99.50;;;;;;5015360;28;21967;-72
2021/08/06 08:54:02;;;;;;;3.03;2.30;;;19.60;71.40;;;;;;5005042;28;21125;-72
2021/08/06 08:56:30;;;;;;;2.90;2.20;;;19.40;28.20;;;;;;5010808;28;20442;-71
2021/08/06 08:58:57;;;;;;;3.50;2.50;;;19.30;43.80;;;;;;5010384;28;20451;-71
2021/08/06 09:01:24;;;;;;;3.00;2.57;;;19.30;59.80;;;;;;5011277;28;20443;-71
2021/08/06 09:03:50;;;;;;;3.23;2.67;;;19.10;44.90;;;;;;5011569;28;20485;-71
2021/08/06 09:06:38;;;;;;;2.80;2.37;;;19.00;82.70;;;;;;5013084;28;21177;-71
2021/08/06 09:09:13;;;;;;;3.13;2.83;;;18.80;51.10;;;;;;5009835;28;20660;-71
2021/08/06 09:12:12;;;;;;;2.80;2.30;;;18.70;24.40;;;;;;5012056;28;20489;-73
2021/08/06 09:14:49;;;;;;;2.20;2.00;;;18.50;38.20;;;;;;5016805;28;20821;-71
2021/08/06 09:17:15;;;;;;;2.90;2.03;;;18.40;11.10;;;;;;5007534;28;20460;-71
2021/08/06 09:19:43;;;;;;;1.87;1.67;;;18.20;5.40;;;;;;5006878;28;20227;-71
2021/08/06 09:22:17;;;;;;;1.90;1.40;;;18.00;13.30;;;;;;5010972;28;20199;-71
2021/08/06 09:25:12;;;;;;;2.40;2.00;;;18.00;48.10;;;;;;5012601;28;20749;-71
2021/08/06 09:27:49;;;;;;;2.60;1.70;;;17.70;95.10;;;;;;5008188;28;20503;-71
2021/08/06 09:30:30;;;;;;;3.83;2.00;;;17.60;99.90;;;;;;5005732;28;20477;-71
2021/08/06 09:32:56;;;;;;;3.63;3.00;;;17.50;99.90;;;;;;5012747;28;20484;-72
2021/08/06 09:35:25;;;;;;;1.40;1.23;;;17.50;1.00;;;;;;5016386;28;20580;-72
2021/08/06 09:37:52;;;;;;;1.70;1.20;;;17.40;1.00;;;;;;5015859;28;20447;-72
2021/08/06 09:40:24;;;;;;;1.90;1.50;;;17.20;1.00;;;;;;5018947;28;20526;-72
2021/08/06 09:43:00;;;;;;;1.70;1.30;;;17.30;99.90;;;;;;5010779;28;20478;-71
2021/08/06 09:45:28;;;;;;;3.20;2.17;;;17.30;99.90;;;;;;5007289;28;20488;-71
2021/08/06 09:47:57;;;;;;;3.93;2.30;;;17.30;99.90;;;;;;5010783;28;20819;-72
2021/08/06 09:50:30;;;;;;;3.00;2.07;;;17.50;99.90;;;;;;5016971;28;20475;-72
2021/08/06 09:52:56;;;;;;;7.53;2.07;;;17.70;99.90;;;;;;5016487;28;20470;-72
2021/08/06 09:55:31;;;;;;;4.50;2.17;;;17.80;99.90;;;;;;5016720;28;20553;-72
2021/08/06 09:57:58;;;;;;;3.93;2.33;;;18.10;99.90;;;;;;5016225;28;20187;-73
2021/08/06 10:00:26;;;;;;;3.60;2.13;;;18.30;99.90;;;;;;5013326;28;20446;-72
2021/08/06 10:02:53;;;;;;;3.80;2.40;;;18.30;1.00;;;;;;5017278;28;20442;-72
2021/08/06 10:05:21;;;;;;;5.43;2.40;;;18.30;1.00;;;;;;5015898;28;20536;-72
2021/08/06 10:07:53;;;;;;;2.70;2.43;;;18.30;1.00;;;;;;5017256;28;20549;-73
2021/08/06 10:10:29;;;;;;;3.83;2.23;;;18.30;1.00;;;;;;5014555;28;20478;-71
2021/08/06 10:12:55;;;;;;;3.10;2.27;;;18.10;99.90;;;;;;5017218;28;20444;-72
2021/08/06 10:15:22;;;;;;;4.43;2.40;;;18.30;99.90;;;;;;5010870;28;20541;-72
2021/08/06 10:17:49;;;;;;;4.13;2.83;;;18.40;99.90;;;;;;5010787;28;20454;-72
2021/08/06 10:20:17;;;;;;;2.80;2.50;;;18.60;99.90;;;;;;5019106;28;20458;-72
2021/08/06 10:22:43;;;;;;;2.60;1.90;;;18.80;99.90;;;;;;5028399;28;20462;-71
2021/08/06 10:25:14;;;;;;;3.70;2.20;;;18.70;46.30;;;;;;5012888;28;20808;-72
2021/08/06 10:27:45;;;;;;;5.37;2.47;;;18.90;99.90;;;;;;5012194;28;20202;-71
2021/08/06 10:30:24;;;;;;;4.97;2.60;;;19.30;78.40;;;;;;5008814;28;20531;-71
2021/08/06 10:33:13;;;;;;;4.60;2.30;;;19.50;12.30;;;;;;5008094;28;20538;-74
2021/08/06 10:35:47;;;;;;;3.10;2.57;;;19.50;1.00;;;;;;5026803;28;20546;-71
2021/08/06 10:38:15;;;;;;;4.43;3.20;;;19.60;1.00;;;;;;5030719;28;20462;-71
2021/08/06 10:40:41;;;;;;;4.63;2.80;;;19.50;1.00;;;;;;5015203;28;20454;-71
2021/08/06 10:43:10;;;;;;;3.77;3.40;;;19.40;1.00;;;;;;5014248;28;20474;-71
2021/08/06 10:45:48;;;;;;;4.20;2.00;;;19.70;1.00;;;;;;5011010;28;20183;-71
2021/08/06 10:48:29;;;;;;;4.00;2.13;;;19.80;1.00;;;;;;5012294;28;20438;-71
2021/08/06 10:51:18;;;;;;;4.37;2.67;;;19.80;1.00;;;;;;5013652;28;20921;-70
2021/08/06 10:53:45;;;;;;;5.03;2.07;;;19.90;1.00;;;;;;5014019;28;20471;-71
2021/08/06 10:56:17;;;;;;;5.17;2.90;;;20.00;1.00;;;;;;5016049;28;20872;-70
2021/08/06 10:58:48;;;;;;;2.10;1.77;;;20.40;1.00;;;;;;5015332;28;20517;-71
2021/08/06 11:01:26;;;;;;;9.97;3.57;;;20.40;1.00;;;;;;5016466;28;20470;-71
2021/08/06 11:03:56;;;;;;;3.70;2.20;;;20.50;1.00;;;;;;5024261;28;20470;-72
2021/08/06 11:06:48;;;;;;;5.50;2.57;;;20.70;1.00;;;;;;5024611;28;20447;-70
2021/08/06 11:09:23;;;;;;;3.10;2.10;;;20.80;1.00;;;;;;5026040;28;20478;-71
2021/08/06 11:11:55;;;;;;;2.50;1.67;;;21.10;1.00;;;;;;5017269;28;20453;-71
2021/08/06 11:14:32;;;;;;;2.90;2.00;;;21.00;1.00;;;;;;5009723;28;20919;-71
2021/08/06 11:17:10;;;;;;;3.80;2.33;;;21.00;1.00;;;;;;5008817;28;20438;-72
2021/08/06 11:19:39;;;;;;;2.70;1.93;;;20.90;1.00;;;;;;5014954;28;20470;-72
2021/08/06 11:22:08;;;;;;;4.63;2.67;;;20.60;1.00;;;;;;5012006;28;20960;-72
2021/08/06 11:24:40;;;;;;;2.67;2.13;;;20.20;1.00;;;;;;5015150;28;20454;-73
2021/08/06 11:27:07;;;;;;;2.90;2.23;;;20.20;1.00;;;;;;5012466;28;20486;-72
2021/08/06 11:29:33;;;;;;;3.73;1.93;;;20.00;1.00;;;;;;5015632;28;20478;-72
2021/08/06 11:32:05;;;;;;;4.80;2.20;;;19.80;1.00;;;;;;5012405;28;20454;-71
2021/08/06 11:34:50;;;;;;;3.00;2.43;;;19.80;1.00;;;;;;5011515;28;20212;-71
2021/08/06 11:37:16;;;;;;;4.90;2.40;;;19.60;1.00;;;;;;5010883;28;20496;-72
2021/08/06 11:40:00;;;;;;;3.40;2.40;;;19.40;1.00;;;;;;5009791;28;20545;-72
2021/08/06 11:42:26;;;;;;;5.70;2.47;;;19.10;1.00;;;;;;5017872;28;20450;-71
2021/08/06 11:44:55;;;;;;;9.60;2.33;;;18.00;1.00;;;;;;5009973;28;20461;-71
2021/08/06 11:47:37;;;;;;;3.27;2.10;;;17.50;13.80;;;;;;5013479;28;20546;-71
2021/08/06 11:50:05;;;;;;;5.40;1.90;;;17.30;99.90;;;;;;5011237;28;20481;-72
2021/08/06 11:52:42;;;;;;;5.50;2.03;;;17.20;99.90;;;;;;5011216;28;20482;-72
2021/08/06 11:55:09;;;;;;;2.70;1.70;;;17.30;99.90;;;;;;5011415;28;20468;-72
2021/08/06 11:57:48;;;;;;;4.10;2.30;;;17.30;99.90;;;;;;5014752;28;20463;-72
2021/08/06 12:00:18;;;;;;;3.70;2.20;;;17.40;99.90;;;;;;5010518;28;20475;-72
2021/08/06 12:02:44;;;;;;;3.73;2.37;;;17.50;1.00;;;;;;5012841;28;20461;-72
2021/08/06 12:05:25;;;;;;;3.57;2.10;;;17.50;1.00;;;;;;5013023;28;20990;-73
2021/08/06 12:07:50;;;;;;;4.80;2.40;;;17.60;29.40;;;;;;5011032;28;20190;-72
2021/08/06 12:10:16;;;;;;;3.30;2.10;;;17.80;99.90;;;;;;5012894;28;20567;-72
2021/08/06 12:12:42;;;;;;;6.70;2.80;;;17.90;99.90;;;;;;5011801;28;20296;-72
2021/08/06 12:15:21;;;;;;;3.93;2.40;;;18.20;99.90;;;;;;5014558;28;20450;-72
2021/08/06 12:17:47;;;;;;;3.70;1.97;;;18.70;1.00;;;;;;5007869;28;20184;-72
2021/08/06 12:20:32;;;;;;;4.20;2.60;;;19.00;99.90;;;;;;5016074;28;20559;-72
2021/08/06 12:22:58;;;;;;;4.80;2.50;;;19.30;99.90;;;;;;5009382;28;20189;-72
2021/08/06 12:25:24;;;;;;;5.53;2.60;;;19.50;99.90;;;;;;5031220;28;20453;-72
2021/08/06 12:27:49;;;;;;;3.60;2.20;;;19.40;88.10;;;;;;5012516;28;21014;-72
2021/08/06 12:30:26;;;;;;;5.70;2.40;;;19.40;15.70;;;;;;5013856;28;20211;-72
2021/08/06 12:32:51;;;;;;;5.60;2.77;;;19.60;13.70;;;;;;5013331;28;20517;-72
2021/08/06 12:35:23;;;;;;;3.47;2.50;;;20.00;75.60;;;;;;5008174;28;20511;-72
2021/08/06 12:37:49;;;;;;;3.50;2.20;;;20.20;16.40;;;;;;5013685;28;20203;-72
2021/08/06 12:40:15;;;;;;;6.23;2.30;;;20.00;1.00;;;;;;5010837;28;20461;-73
2021/08/06 12:42:41;;;;;;;3.57;2.17;;;20.30;1.00;;;;;;5017815;28;20852;-72
2021/08/06 12:45:10;;;;;;;3.37;2.33;;;20.70;1.00;;;;;;5011549;28;20950;-72
2021/08/06 12:48:03;;;;;;;3.43;2.10;;;20.70;1.00;;;;;;5015934;28;20447;-72
2021/08/06 12:50:31;;;;;;;3.63;1.80;;;21.00;1.00;;;;;;5016411;28;20514;-72
2021/08/06 12:53:10;;;;;;;5.50;1.83;;;21.20;1.00;;;;;;5010176;28;20508;-72
2021/08/06 12:55:37;;;;;;;4.70;1.83;;;21.40;1.00;;;;;;5012382;28;20460;-72
2021/08/06 12:58:16;;;;;;;2.30;1.80;;;21.30;1.00;;;;;;5014834;28;20473;-72
2021/08/06 13:00:51;;;;;;;2.70;1.70;;;21.00;1.00;;;;;;5018975;28;21216;-72
2021/08/06 13:03:21;;;;;;;3.20;1.33;;;21.00;1.00;;;;;;5012017;28;20454;-71